createdAt,value
2022-08-26T00:00:59.123Z,52.28
2022-08-26T00:03:25.679Z,52.53
2022-08-26T00:05:52.195Z,52.71
2022-08-26T00:08:19.971Z,52.18
2022-08-26T00:10:46.591Z,52.05
2022-08-26T00:13:13.454Z,52.41
2022-08-26T00:15:40.749Z,52.43
2022-08-26T00:18:16.771Z,52.58
2022-08-26T00:20:49.020Z,52.60
2022-08-26T00:23:15.670Z,52.77
2022-08-26T00:25:44.926Z,53.14
2022-08-26T00:28:11.893Z,53.91
2022-08-26T00:30:38.883Z,53.54
2022-08-26T00:33:05.658Z,54.02
2022-08-26T00:35:32.686Z,54.20
2022-08-26T00:38:00.828Z,53.77
2022-08-26T00:40:34.271Z,53.92
2022-08-26T00:43:02.119Z,53.82
2022-08-26T00:45:51.501Z,53.75
2022-08-26T00:48:20.394Z,53.83
2022-08-26T00:50:54.989Z,53.97
2022-08-26T00:53:25.995Z,53.57
2022-08-26T00:56:04.426Z,53.76
2022-08-26T00:58:32.725Z,53.70
2022-08-26T01:01:00.079Z,53.96
2022-08-26T01:03:28.022Z,54.21
2022-08-26T01:05:57.369Z,54.68
2022-08-26T01:08:24.720Z,55.33
2022-08-26T01:10:52.148Z,55.55
2022-08-26T01:13:23.927Z,55.14
2022-08-26T01:15:56.392Z,55.66
2022-08-26T01:18:23.428Z,54.89
2022-08-26T01:21:16.654Z,54.51
2022-08-26T01:23:48.358Z,54.33
2022-08-26T01:26:36.136Z,54.40
2022-08-26T01:29:04.762Z,54.25
2022-08-26T01:31:39.088Z,54.92
2022-08-26T01:34:10.836Z,55.82
2022-08-26T01:36:39.039Z,56.07
2022-08-26T01:39:07.243Z,56.18
2022-08-26T01:41:34.779Z,56.29
2022-08-26T01:44:02.094Z,56.66
2022-08-26T01:46:30.540Z,56.12
2022-08-26T01:48:59.094Z,56.13
2022-08-26T01:51:26.617Z,56.58
2022-08-26T01:53:53.861Z,56.94
2022-08-26T01:56:22.102Z,57.20
2022-08-26T01:58:52.206Z,56.82
2022-08-26T02:01:19.619Z,57.21
2022-08-26T02:03:56.305Z,57.60
2022-08-26T02:06:23.015Z,58.11
2022-08-26T02:08:52.728Z,57.04
2022-08-26T02:11:19.154Z,57.08
2022-08-26T02:13:52.679Z,57.23
2022-08-26T02:16:24.061Z,57.12
2022-08-26T02:18:53.346Z,57.15
2022-08-26T02:21:20.059Z,57.71
2022-08-26T02:23:46.685Z,58.40
2022-08-26T02:26:17.878Z,57.79
2022-08-26T02:29:07.698Z,57.13
2022-08-26T02:31:34.565Z,57.36
2022-08-26T02:34:13.656Z,57.54
2022-08-26T02:36:42.026Z,56.81
2022-08-26T02:39:09.120Z,57.15
2022-08-26T02:41:36.162Z,56.93
2022-08-26T02:44:11.809Z,57.21
2022-08-26T02:46:38.735Z,57.45
2022-08-26T02:49:06.681Z,57.04
2022-08-26T02:51:33.216Z,56.89
2022-08-26T02:53:59.851Z,56.62
2022-08-26T02:56:28.712Z,56.14
2022-08-26T02:58:55.579Z,56.50
2022-08-26T03:01:24.797Z,56.96
2022-08-26T03:03:52.002Z,57.44
2022-08-26T03:06:18.872Z,57.51
2022-08-26T03:08:45.909Z,58.05
2022-08-26T03:11:13.788Z,58.23
2022-08-26T03:13:41.817Z,58.25
2022-08-26T03:16:08.753Z,58.51
2022-08-26T03:18:35.945Z,57.58
2022-08-26T03:21:12.063Z,57.82
2022-08-26T03:23:39.969Z,57.80
2022-08-26T03:26:07.637Z,58.71
2022-08-26T03:28:38.321Z,59.40
2022-08-26T03:31:05.020Z,58.82
2022-08-26T03:33:31.502Z,59.33
2022-08-26T03:35:58.340Z,59.11
2022-08-26T03:38:24.851Z,58.96
2022-08-26T03:40:51.542Z,57.66
2022-08-26T03:43:19.221Z,57.86
2022-08-26T03:45:45.986Z,57.88
2022-08-26T03:48:12.721Z,58.25
2022-08-26T03:50:39.362Z,57.44
2022-08-26T03:53:07.512Z,57.87
2022-08-26T03:55:39.532Z,58.15
2022-08-26T03:58:06.176Z,58.25
2022-08-26T04:00:32.706Z,58.87
2022-08-26T04:03:01.172Z,58.34
2022-08-26T04:05:28.430Z,58.68
2022-08-26T04:07:55.007Z,58.44
2022-08-26T04:10:22.430Z,59.34
2022-08-26T04:12:58.849Z,59.57
2022-08-26T04:15:26.361Z,59.76
2022-08-26T04:17:53.208Z,59.80
2022-08-26T04:20:20.838Z,59.55
2022-08-26T04:22:47.347Z,59.93
2022-08-26T04:25:14.077Z,59.25
2022-08-26T04:27:40.777Z,60.33
2022-08-26T04:30:07.975Z,59.81
2022-08-26T04:32:35.487Z,59.76
2022-08-26T04:35:03.698Z,60.45
2022-08-26T04:37:31.195Z,60.36
2022-08-26T04:39:59.296Z,60.75
2022-08-26T04:42:26.435Z,60.26
2022-08-26T04:44:59.119Z,60.00
2022-08-26T04:47:29.185Z,59.64
2022-08-26T04:49:58.727Z,59.21
2022-08-26T04:52:25.295Z,60.36
2022-08-26T04:54:51.949Z,59.87
2022-08-26T04:57:19.015Z,60.13
2022-08-26T04:59:45.549Z,59.65
2022-08-26T05:02:12.645Z,58.52
2022-08-26T05:04:39.173Z,59.11
2022-08-26T05:07:05.680Z,59.11
2022-08-26T05:09:32.983Z,58.03
2022-08-26T05:11:59.502Z,57.95
2022-08-26T05:14:26.071Z,57.76
2022-08-26T05:16:52.573Z,56.60
2022-08-26T05:19:19.744Z,56.96
2022-08-26T05:21:48.053Z,56.07
2022-08-26T05:24:14.918Z,56.02
2022-08-26T05:26:41.697Z,55.76
2022-08-26T05:29:11.076Z,55.57
2022-08-26T05:31:37.679Z,55.22
2022-08-26T05:34:04.277Z,54.29
2022-08-26T05:36:32.720Z,54.54
2022-08-26T05:39:00.999Z,54.45
2022-08-26T05:41:34.248Z,54.93
2022-08-26T05:44:06.126Z,54.57
2022-08-26T05:46:35.877Z,54.20
2022-08-26T05:49:04.200Z,56.01
2022-08-26T05:51:31.110Z,55.97
2022-08-26T05:53:58.166Z,54.93
2022-08-26T05:56:30.339Z,55.09
2022-08-26T05:58:58.347Z,54.37
2022-08-26T06:01:26.456Z,54.45
2022-08-26T06:03:55.879Z,53.75
2022-08-26T06:06:27.318Z,53.21
2022-08-26T06:08:56.532Z,53.07
2022-08-26T06:11:24.457Z,52.40
2022-08-26T06:13:51.950Z,53.06
2022-08-26T06:16:19.688Z,52.33
2022-08-26T06:18:47.904Z,52.89
2022-08-26T06:21:19.537Z,52.08
2022-08-26T06:23:48.344Z,52.63
2022-08-26T06:26:17.119Z,51.62
2022-08-26T06:28:45.429Z,51.95
2022-08-26T06:31:12.797Z,52.04
2022-08-26T06:33:39.386Z,50.34
2022-08-26T06:36:06.303Z,49.80
2022-08-26T06:38:32.915Z,50.43
2022-08-26T06:41:00.081Z,51.21
2022-08-26T06:43:28.575Z,50.59
2022-08-26T06:46:04.271Z,51.54
2022-08-26T06:48:32.071Z,50.91
2022-08-26T06:51:08.966Z,49.71
2022-08-26T06:53:37.159Z,51.08
2022-08-26T06:56:05.855Z,50.98
2022-08-26T06:58:33.621Z,50.92
2022-08-26T07:01:03.744Z,50.77
2022-08-26T07:03:39.492Z,50.96
2022-08-26T07:06:06.558Z,51.89
2022-08-26T07:08:33.901Z,52.53
2022-08-26T07:11:05.065Z,53.16
2022-08-26T07:13:31.583Z,52.61
2022-08-26T07:15:58.235Z,51.63
2022-08-26T07:18:29.771Z,50.13
2022-08-26T07:20:56.484Z,47.92
2022-08-26T07:23:23.258Z,47.62
2022-08-26T07:25:50.785Z,48.44
2022-08-26T07:28:17.317Z,47.58
2022-08-26T07:30:43.856Z,47.85
2022-08-26T07:33:10.408Z,47.95
2022-08-26T07:35:37.496Z,46.78
2022-08-26T07:38:03.990Z,47.06
2022-08-26T07:40:32.155Z,47.82
2022-08-26T07:43:00.124Z,47.13
2022-08-26T07:45:27.631Z,47.02
2022-08-26T07:47:54.520Z,46.39
2022-08-26T07:50:21.314Z,47.63
2022-08-26T07:53:08.153Z,47.94
2022-08-26T07:55:37.320Z,47.83
2022-08-26T07:58:05.753Z,48.64
2022-08-26T08:00:33.436Z,48.46
2022-08-26T08:03:02.149Z,47.94
2022-08-26T08:05:33.417Z,47.95
2022-08-26T08:08:27.263Z,48.32
2022-08-26T08:10:48.867Z,48.66
2022-08-26T08:13:15.837Z,50.12
2022-08-26T08:15:42.466Z,48.45
2022-08-26T08:18:15.779Z,49.26
2022-08-26T08:20:47.674Z,46.31
2022-08-26T08:23:25.906Z,45.75
2022-08-26T08:26:01.104Z,43.49
2022-08-26T08:28:27.807Z,41.74
2022-08-26T08:30:54.374Z,42.44
2022-08-26T08:33:20.894Z,41.86
2022-08-26T08:35:48.156Z,41.53
2022-08-26T08:38:15.147Z,41.92
2022-08-26T08:40:44.553Z,42.88
2022-08-26T08:43:28.507Z,43.18
2022-08-26T08:46:07.382Z,44.29
2022-08-26T08:48:37.734Z,43.42
2022-08-26T08:51:10.916Z,43.30
2022-08-26T08:53:40.653Z,44.15
2022-08-26T08:56:07.085Z,43.82
2022-08-26T08:58:47.309Z,44.21
2022-08-26T09:01:42.559Z,45.29
2022-08-26T09:04:30.816Z,46.11
2022-08-26T09:07:00.453Z,45.82
2022-08-26T09:09:36.282Z,46.98
2022-08-26T09:12:04.933Z,48.01
2022-08-26T09:14:34.323Z,48.40
2022-08-26T09:17:25.539Z,48.77
2022-08-26T09:19:54.561Z,47.63
2022-08-26T09:22:35.467Z,48.92
2022-08-26T09:25:05.673Z,49.45
2022-08-26T09:27:44.232Z,48.22
2022-08-26T09:30:15.247Z,47.46
2022-08-26T09:32:42.303Z,46.02
2022-08-26T09:35:24.128Z,47.64
2022-08-26T09:40:34.520Z,47.63
2022-08-26T09:43:12.770Z,47.63
2022-08-26T09:45:41.260Z,49.89
2022-08-26T09:48:26.136Z,52.15
2022-08-26T09:51:01.621Z,52.88
2022-08-26T09:53:31.171Z,52.92
2022-08-26T09:56:31.674Z,52.72
2022-08-26T09:58:59.965Z,52.70
2022-08-26T10:01:33.396Z,49.07
2022-08-26T10:04:11.022Z,49.41
2022-08-26T10:06:55.986Z,48.50
2022-08-26T10:09:24.291Z,50.74
2022-08-26T10:11:57.355Z,49.94
2022-08-26T10:14:30.035Z,52.15
2022-08-26T10:17:09.667Z,51.87
2022-08-26T10:19:55.916Z,51.26
2022-08-26T10:22:44.609Z,52.01
2022-08-26T10:25:17.447Z,51.23
2022-08-26T10:27:53.406Z,51.54
2022-08-26T10:30:24.067Z,50.68
2022-08-26T10:32:56.743Z,50.99
2022-08-26T10:35:23.338Z,51.32
2022-08-26T10:38:01.787Z,51.38
2022-08-26T10:40:40.504Z,51.72
2022-08-26T10:43:19.420Z,51.81
2022-08-26T10:45:52.311Z,51.32
2022-08-26T10:48:35.309Z,51.84
2022-08-26T10:51:04.170Z,51.46
2022-08-26T10:53:51.783Z,51.03
2022-08-26T10:56:19.207Z,50.23
2022-08-26T10:59:16.377Z,49.79
2022-08-26T11:01:43.050Z,49.25
2022-08-26T11:04:22.566Z,48.47
2022-08-26T11:06:49.757Z,49.62
2022-08-26T11:09:43.580Z,47.92
2022-08-26T11:12:37.383Z,47.64
2022-08-26T11:15:06.885Z,47.71
2022-08-26T11:17:45.262Z,46.52
2022-08-26T11:20:13.690Z,45.53
2022-08-26T11:22:48.044Z,45.68
2022-08-26T11:25:16.283Z,46.73
2022-08-26T11:27:47.804Z,46.41
2022-08-26T11:30:15.489Z,44.89
2022-08-26T11:32:55.041Z,44.35
2022-08-26T11:35:21.481Z,44.26
2022-08-26T11:37:47.958Z,45.50
2022-08-26T11:40:21.496Z,44.91
2022-08-26T11:42:53.332Z,44.28
2022-08-26T11:45:25.826Z,44.22
2022-08-26T11:47:53.211Z,44.60
2022-08-26T11:50:25.652Z,44.63
2022-08-26T11:52:54.731Z,46.45
2022-08-26T11:55:23.482Z,46.24
2022-08-26T11:57:54.752Z,46.84
2022-08-26T12:00:33.570Z,46.01
2022-08-26T12:03:02.687Z,45.12
2022-08-26T12:05:31.617Z,43.50
2022-08-26T12:08:02.849Z,42.93
2022-08-26T12:10:32.160Z,42.93
2022-08-26T12:13:00.466Z,41.71
2022-08-26T12:15:29.632Z,41.35
2022-08-26T12:17:56.264Z,41.02
2022-08-26T12:20:32.893Z,40.33
2022-08-26T12:22:59.491Z,40.69
2022-08-26T12:25:26.129Z,40.38
2022-08-26T12:27:54.055Z,40.08
2022-08-26T12:30:24.618Z,40.49
2022-08-26T12:33:03.920Z,41.69
2022-08-26T12:35:51.439Z,41.33
2022-08-26T12:38:21.101Z,40.82
2022-08-26T12:40:48.296Z,39.34
2022-08-26T12:43:38.479Z,39.41
2022-08-26T12:46:06.751Z,37.60
2022-08-26T12:48:35.819Z,38.18
2022-08-26T12:51:02.918Z,38.95
2022-08-26T12:53:32.293Z,37.81
2022-08-26T12:56:04.368Z,38.26
2022-08-26T12:58:36.525Z,36.99
2022-08-26T13:01:06.000Z,37.66
2022-08-26T13:03:35.286Z,39.03
2022-08-26T13:06:29.335Z,39.69
2022-08-26T13:09:00.885Z,39.95
2022-08-26T13:11:32.109Z,40.21
2022-08-26T13:14:07.693Z,41.85
2022-08-26T13:16:35.437Z,43.88
2022-08-26T13:19:05.100Z,45.05
2022-08-26T13:21:37.314Z,46.08
2022-08-26T13:24:09.529Z,46.43
2022-08-26T13:26:36.048Z,46.91
2022-08-26T13:29:04.512Z,47.17
2022-08-26T13:31:33.741Z,46.24
2022-08-26T13:34:02.553Z,45.30
2022-08-26T13:36:29.266Z,44.19
2022-08-26T13:38:55.781Z,43.92
2022-08-26T13:41:29.417Z,44.19
2022-08-26T13:43:56.805Z,44.22
2022-08-26T13:46:26.003Z,43.91
2022-08-26T13:48:52.577Z,43.19
2022-08-26T13:51:19.513Z,43.65
2022-08-26T13:53:46.336Z,42.37
2022-08-26T13:56:12.956Z,42.67
2022-08-26T13:58:39.601Z,41.98
2022-08-26T14:01:06.953Z,42.02
2022-08-26T14:03:33.565Z,41.77
2022-08-26T14:06:00.123Z,42.16
2022-08-26T14:08:26.784Z,42.02
2022-08-26T14:10:53.269Z,41.93
2022-08-26T14:13:19.831Z,42.79
2022-08-26T14:15:46.622Z,43.63
2022-08-26T14:18:15.270Z,42.81
2022-08-26T14:20:47.257Z,43.70
2022-08-26T14:23:20.654Z,42.76
2022-08-26T14:25:47.405Z,42.88
2022-08-26T14:28:14.081Z,42.77
2022-08-26T14:30:42.439Z,41.90
2022-08-26T14:33:12.293Z,41.65
2022-08-26T14:35:39.490Z,41.61
2022-08-26T14:38:07.634Z,41.81
2022-08-26T14:40:34.330Z,41.86
2022-08-26T14:43:05.345Z,42.13
2022-08-26T14:45:33.585Z,42.23
2022-08-26T14:48:00.158Z,42.22
2022-08-26T14:50:26.863Z,42.43
2022-08-26T14:52:54.016Z,42.29
2022-08-26T14:55:20.567Z,43.18
2022-08-26T14:57:47.127Z,42.98
2022-08-26T15:00:13.740Z,44.10
2022-08-26T15:02:40.412Z,44.12
2022-08-26T15:05:07.631Z,44.78
2022-08-26T15:07:34.503Z,45.28
2022-08-26T15:10:01.201Z,45.15
2022-08-26T15:12:27.704Z,46.29
2022-08-26T15:14:54.574Z,46.73
2022-08-26T15:17:21.097Z,46.92
2022-08-26T15:19:47.670Z,46.96
2022-08-26T15:22:14.529Z,46.61
2022-08-26T15:24:41.158Z,46.49
2022-08-26T15:27:07.699Z,47.36
2022-08-26T15:29:36.359Z,46.96
2022-08-26T15:32:03.332Z,47.27
2022-08-26T15:34:29.843Z,47.14
2022-08-26T15:36:56.382Z,46.50
2022-08-26T15:39:23.008Z,46.35
2022-08-26T15:41:49.853Z,45.80
2022-08-26T15:44:16.646Z,44.54
2022-08-26T15:46:43.548Z,43.98
2022-08-26T15:49:17.826Z,43.59
2022-08-26T15:51:46.379Z,42.37
2022-08-26T15:54:13.870Z,41.86
2022-08-26T15:56:40.465Z,41.02
2022-08-26T15:59:07.406Z,41.47
2022-08-26T16:01:34.617Z,40.63
2022-08-26T16:04:01.781Z,40.40
2022-08-26T16:06:31.873Z,40.14
2022-08-26T16:08:58.774Z,40.99
2022-08-26T16:11:26.360Z,42.04
2022-08-26T16:13:52.894Z,42.47
2022-08-26T16:16:19.526Z,44.62
2022-08-26T16:18:46.138Z,45.68
2022-08-26T16:21:17.335Z,46.26
2022-08-26T16:23:45.349Z,46.10
2022-08-26T16:26:15.550Z,46.09
2022-08-26T16:28:43.616Z,46.00
2022-08-26T16:31:13.251Z,45.50
2022-08-26T16:33:39.900Z,45.36
2022-08-26T16:36:07.521Z,45.96
2022-08-26T16:38:34.949Z,46.28
2022-08-26T16:41:02.180Z,46.44
2022-08-26T16:43:28.981Z,47.71
2022-08-26T16:45:55.688Z,48.64
2022-08-26T16:48:22.531Z,48.58
2022-08-26T16:50:49.448Z,48.49
2022-08-26T16:53:16.213Z,48.77
2022-08-26T16:55:47.456Z,48.61
2022-08-26T16:58:14.145Z,48.48
2022-08-26T17:00:40.744Z,48.28
2022-08-26T17:03:07.421Z,47.46
2022-08-26T17:05:34.177Z,47.41
2022-08-26T17:08:00.750Z,47.62
2022-08-26T17:10:28.810Z,46.33
2022-08-26T17:12:58.850Z,47.63
2022-08-26T17:15:25.552Z,47.07
2022-08-26T17:17:53.624Z,46.91
2022-08-26T17:20:21.975Z,47.74
2022-08-26T17:22:49.876Z,47.58
2022-08-26T17:25:28.769Z,47.82
2022-08-26T17:30:24.831Z,50.26
2022-08-26T17:32:51.934Z,50.58
2022-08-26T17:35:19.231Z,52.17
2022-08-26T17:37:45.768Z,52.90
2022-08-26T17:40:15.636Z,53.31
2022-08-26T17:42:42.297Z,52.45
2022-08-26T17:45:09.600Z,52.24
2022-08-26T17:47:39.062Z,52.15
2022-08-26T17:50:11.010Z,51.92
2022-08-26T17:52:38.044Z,52.95
2022-08-26T17:55:09.154Z,53.24
2022-08-26T17:57:40.553Z,53.05
2022-08-26T18:00:15.886Z,52.84
2022-08-26T18:02:42.829Z,52.80
2022-08-26T18:05:11.516Z,53.19
2022-08-26T18:07:43.743Z,53.68
2022-08-26T18:10:13.282Z,53.58
2022-08-26T18:12:40.560Z,53.69
2022-08-26T18:15:07.683Z,53.93
2022-08-26T18:17:34.231Z,53.78
2022-08-26T18:20:00.833Z,53.15
2022-08-26T18:22:27.370Z,51.93
2022-08-26T18:24:58.692Z,51.26
2022-08-26T18:27:28.176Z,51.37
2022-08-26T18:29:54.913Z,50.95
2022-08-26T18:32:21.418Z,50.95
2022-08-26T18:34:47.972Z,51.07
2022-08-26T18:37:14.543Z,51.42
2022-08-26T18:39:41.340Z,51.45
2022-08-26T18:42:08.308Z,51.96
2022-08-26T18:44:34.847Z,51.98
2022-08-26T18:47:01.631Z,51.62
2022-08-26T18:49:28.139Z,51.58
2022-08-26T18:51:54.763Z,51.89
2022-08-26T18:56:53.304Z,52.37
2022-08-26T18:59:19.949Z,52.53
2022-08-26T19:01:57.653Z,52.50
2022-08-26T19:04:24.284Z,52.66
2022-08-26T19:06:51.395Z,52.69
2022-08-26T19:09:19.326Z,53.30
2022-08-26T19:11:48.827Z,53.05
2022-08-26T19:14:16.692Z,52.62
2022-08-26T19:16:45.944Z,53.45
2022-08-26T19:19:13.068Z,52.96
2022-08-26T19:21:39.854Z,53.17
2022-08-26T19:24:12.988Z,53.36
2022-08-26T19:26:39.507Z,53.57
2022-08-26T19:29:06.264Z,53.62
2022-08-26T19:31:32.871Z,53.69
2022-08-26T19:33:59.421Z,53.29
2022-08-26T19:36:27.623Z,54.10
2022-08-26T19:38:55.111Z,53.63
2022-08-26T19:41:36.680Z,54.06
2022-08-26T19:44:08.924Z,54.33
2022-08-26T19:46:36.012Z,53.99
2022-08-26T19:49:02.794Z,54.13
2022-08-26T19:51:31.189Z,54.71
2022-08-26T19:53:59.719Z,54.35
2022-08-26T19:56:27.824Z,55.00
2022-08-26T19:58:55.051Z,54.87
2022-08-26T20:01:22.389Z,54.27
2022-08-26T20:03:49.570Z,54.50
2022-08-26T20:06:17.152Z,54.47
2022-08-26T20:08:45.824Z,54.04
2022-08-26T20:11:15.415Z,54.26
2022-08-26T20:13:41.965Z,53.48
2022-08-26T20:16:09.070Z,53.23
2022-08-26T20:18:35.737Z,53.44
2022-08-26T20:21:02.467Z,53.05
2022-08-26T20:23:28.951Z,53.34
2022-08-26T20:25:55.734Z,53.26
2022-08-26T20:28:22.238Z,53.01
2022-08-26T20:30:48.739Z,53.42
2022-08-26T20:33:15.276Z,53.03
2022-08-26T20:35:41.782Z,53.84
2022-08-26T20:38:08.502Z,54.21
2022-08-26T20:40:35.560Z,55.02
2022-08-26T20:43:02.173Z,54.31
2022-08-26T20:45:29.238Z,54.68
2022-08-26T20:47:55.803Z,54.47
2022-08-26T20:50:22.350Z,54.43
2022-08-26T20:52:48.897Z,54.49
2022-08-26T20:55:15.448Z,54.25
2022-08-26T20:57:41.967Z,54.61
2022-08-26T21:00:09.340Z,54.44
2022-08-26T21:02:39.768Z,54.92
2022-08-26T21:05:06.890Z,55.09
2022-08-26T21:07:35.578Z,56.61
2022-08-26T21:10:02.792Z,56.39
2022-08-26T21:12:29.641Z,56.11
2022-08-26T21:14:56.235Z,56.56
2022-08-26T21:17:25.341Z,56.66
2022-08-26T21:19:51.830Z,56.42
2022-08-26T21:22:19.393Z,58.28
2022-08-26T21:24:46.132Z,58.25
2022-08-26T21:27:12.912Z,58.46
2022-08-26T21:29:50.717Z,58.84
2022-08-26T21:32:18.569Z,58.32
2022-08-26T21:34:45.113Z,58.16
2022-08-26T21:37:15.423Z,58.81
2022-08-26T21:39:43.212Z,59.42
2022-08-26T21:42:09.831Z,59.10
2022-08-26T21:44:36.351Z,58.50
2022-08-26T21:47:03.248Z,58.56
2022-08-26T21:49:29.819Z,59.61
2022-08-26T21:51:56.723Z,59.55
2022-08-26T21:54:23.524Z,59.63
2022-08-26T21:56:50.377Z,59.50
2022-08-26T21:59:18.697Z,59.71
2022-08-26T22:01:45.579Z,59.76
2022-08-26T22:04:12.357Z,59.28
2022-08-26T22:06:42.698Z,59.23
2022-08-26T22:09:10.030Z,59.44
2022-08-26T22:11:36.669Z,60.70
2022-08-26T22:14:03.208Z,61.59
2022-08-26T22:16:29.793Z,61.07
2022-08-26T22:18:57.188Z,61.27
2022-08-26T22:21:25.788Z,61.85
2022-08-26T22:23:52.558Z,62.32
2022-08-26T22:26:26.758Z,62.59
2022-08-26T22:28:59.070Z,63.53
2022-08-26T22:31:38.388Z,63.47
2022-08-26T22:34:12.855Z,62.85
2022-08-26T22:36:43.560Z,62.98
2022-08-26T22:39:11.776Z,62.71
2022-08-26T22:41:38.268Z,62.03
2022-08-26T22:44:05.608Z,61.23
2022-08-26T22:46:32.091Z,61.74
2022-08-26T22:48:59.078Z,61.23
2022-08-26T22:51:25.866Z,61.42
2022-08-26T22:53:52.381Z,61.75
2022-08-26T22:56:18.897Z,61.15
2022-08-26T22:58:45.436Z,61.96
2022-08-26T23:01:11.998Z,62.73
2022-08-26T23:03:41.920Z,62.50
2022-08-26T23:06:09.400Z,63.02
2022-08-26T23:08:36.876Z,62.13
2022-08-26T23:11:07.663Z,61.14
2022-08-26T23:13:34.155Z,62.27
2022-08-26T23:16:07.176Z,63.18
2022-08-26T23:18:33.839Z,63.27
2022-08-26T23:21:00.435Z,63.51
2022-08-26T23:23:26.961Z,63.76
2022-08-26T23:25:55.232Z,64.50
2022-08-26T23:28:22.029Z,64.62
2022-08-26T23:30:48.785Z,65.21
2022-08-26T23:33:15.571Z,65.49
2022-08-26T23:35:42.259Z,65.89
2022-08-26T23:38:08.785Z,66.23
2022-08-26T23:40:36.865Z,66.05
2022-08-26T23:43:05.589Z,66.00
2022-08-26T23:45:33.184Z,66.37
2022-08-26T23:48:00.289Z,66.45
2022-08-26T23:50:29.761Z,67.28
2022-08-26T23:52:56.298Z,67.42
2022-08-26T23:55:23.163Z,67.91
2022-08-26T23:57:50.236Z,68.79
